sensor_id;sensor_type;location;lat;lon;timestamp;P1;durP1;ratioP1;P2;durP2;ratioP2
23394;SDS011;11870;53.084;18.206;2023-05-21T00:00:08;19.27;;;10.88;;
23394;SDS011;11870;53.084;18.206;2023-05-21T00:02:56;15.15;;;10.57;;
23394;SDS011;11870;53.084;18.206;2023-05-21T00:05:23;19.15;;;10.60;;
23394;SDS011;11870;53.084;18.206;2023-05-21T00:07:49;18.42;;;11.45;;
23394;SDS011;11870;53.084;18.206;2023-05-21T00:10:17;15.93;;;11.75;;
23394;SDS011;11870;53.084;18.206;2023-05-21T00:12:44;19.35;;;12.32;;
23394;SDS011;11870;53.084;18.206;2023-05-21T00:15:10;16.15;;;11.07;;
23394;SDS011;11870;53.084;18.206;2023-05-21T00:17:36;18.90;;;11.40;;
23394;SDS011;11870;53.084;18.206;2023-05-21T00:20:03;13.98;;;10.27;;
23394;SDS011;11870;53.084;18.206;2023-05-21T00:22:33;16.58;;;11.07;;
23394;SDS011;11870;53.084;18.206;2023-05-21T00:25:00;14.07;;;10.57;;
23394;SDS011;11870;53.084;18.206;2023-05-21T00:27:27;14.30;;;10.48;;
23394;SDS011;11870;53.084;18.206;2023-05-21T00:29:52;14.50;;;9.90;;
23394;SDS011;11870;53.084;18.206;2023-05-21T00:32:18;14.60;;;9.60;;
23394;SDS011;11870;53.084;18.206;2023-05-21T00:34:44;14.23;;;10.00;;
23394;SDS011;11870;53.084;18.206;2023-05-21T00:37:10;15.80;;;9.48;;
23394;SDS011;11870;53.084;18.206;2023-05-21T00:39:39;15.10;;;11.07;;
23394;SDS011;11870;53.084;18.206;2023-05-21T00:42:05;15.43;;;11.20;;
23394;SDS011;11870;53.084;18.206;2023-05-21T00:44:31;14.85;;;10.80;;
23394;SDS011;11870;53.084;18.206;2023-05-21T00:46:59;19.63;;;12.57;;
23394;SDS011;11870;53.084;18.206;2023-05-21T00:49:28;16.40;;;11.65;;
23394;SDS011;11870;53.084;18.206;2023-05-21T00:51:55;18.67;;;12.85;;
23394;SDS011;11870;53.084;18.206;2023-05-21T00:54:21;19.42;;;12.15;;
23394;SDS011;11870;53.084;18.206;2023-05-21T00:56:49;18.35;;;12.88;;
23394;SDS011;11870;53.084;18.206;2023-05-21T00:59:16;18.40;;;13.20;;
23394;SDS011;11870;53.084;18.206;2023-05-21T01:01:43;16.70;;;11.02;;
23394;SDS011;11870;53.084;18.206;2023-05-21T01:04:09;18.88;;;12.35;;
23394;SDS011;11870;53.084;18.206;2023-05-21T01:06:36;17.05;;;11.65;;
23394;SDS011;11870;53.084;18.206;2023-05-21T01:09:03;21.10;;;13.95;;
23394;SDS011;11870;53.084;18.206;2023-05-21T01:11:39;21.45;;;14.18;;
23394;SDS011;11870;53.084;18.206;2023-05-21T01:14:07;22.20;;;12.77;;
23394;SDS011;11870;53.084;18.206;2023-05-21T01:16:37;20.58;;;12.80;;
23394;SDS011;11870;53.084;18.206;2023-05-21T01:19:05;16.77;;;11.15;;
23394;SDS011;11870;53.084;18.206;2023-05-21T01:21:35;20.08;;;13.25;;
23394;SDS011;11870;53.084;18.206;2023-05-21T01:24:05;20.88;;;13.70;;
23394;SDS011;11870;53.084;18.206;2023-05-21T01:26:32;20.25;;;13.13;;
23394;SDS011;11870;53.084;18.206;2023-05-21T01:29:05;18.75;;;12.80;;
23394;SDS011;11870;53.084;18.206;2023-05-21T01:37:20;20.50;;;13.15;;
23394;SDS011;11870;53.084;18.206;2023-05-21T01:42:40;19.80;;;13.18;;
23394;SDS011;11870;53.084;18.206;2023-05-21T01:45:08;22.20;;;14.45;;
23394;SDS011;11870;53.084;18.206;2023-05-21T01:47:36;17.83;;;12.20;;
23394;SDS011;11870;53.084;18.206;2023-05-21T01:50:03;21.35;;;13.98;;
23394;SDS011;11870;53.084;18.206;2023-05-21T01:52:30;17.90;;;12.40;;
23394;SDS011;11870;53.084;18.206;2023-05-21T01:54:56;21.55;;;12.43;;
23394;SDS011;11870;53.084;18.206;2023-05-21T01:57:22;18.05;;;11.73;;
23394;SDS011;11870;53.084;18.206;2023-05-21T01:59:48;17.52;;;12.07;;
23394;SDS011;11870;53.084;18.206;2023-05-21T02:02:15;22.65;;;13.88;;
23394;SDS011;11870;53.084;18.206;2023-05-21T02:04:41;20.00;;;13.07;;
23394;SDS011;11870;53.084;18.206;2023-05-21T02:07:08;19.52;;;13.55;;
23394;SDS011;11870;53.084;18.206;2023-05-21T02:09:34;22.67;;;14.52;;
23394;SDS011;11870;53.084;18.206;2023-05-21T02:12:01;20.10;;;13.45;;
23394;SDS011;11870;53.084;18.206;2023-05-21T02:14:27;16.95;;;12.68;;
23394;SDS011;11870;53.084;18.206;2023-05-21T02:16:54;17.45;;;12.02;;
23394;SDS011;11870;53.084;18.206;2023-05-21T02:19:21;18.55;;;12.60;;
23394;SDS011;11870;53.084;18.206;2023-05-21T02:21:47;21.98;;;14.43;;
23394;SDS011;11870;53.084;18.206;2023-05-21T02:24:12;20.73;;;14.02;;
23394;SDS011;11870;53.084;18.206;2023-05-21T02:26:38;22.80;;;13.13;;
23394;SDS011;11870;53.084;18.206;2023-05-21T02:29:05;23.05;;;14.93;;
23394;SDS011;11870;53.084;18.206;2023-05-21T02:31:31;23.52;;;15.18;;
23394;SDS011;11870;53.084;18.206;2023-05-21T02:33:57;21.05;;;14.02;;
23394;SDS011;11870;53.084;18.206;2023-05-21T02:36:23;24.00;;;14.98;;
23394;SDS011;11870;53.084;18.206;2023-05-21T02:38:49;18.73;;;12.68;;
23394;SDS011;11870;53.084;18.206;2023-05-21T02:41:15;21.35;;;14.18;;
23394;SDS011;11870;53.084;18.206;2023-05-21T02:43:41;19.08;;;12.95;;
23394;SDS011;11870;53.084;18.206;2023-05-21T02:46:07;21.98;;;14.95;;
23394;SDS011;11870;53.084;18.206;2023-05-21T02:48:33;21.17;;;13.65;;
23394;SDS011;11870;53.084;18.206;2023-05-21T02:50:59;19.25;;;13.35;;
23394;SDS011;11870;53.084;18.206;2023-05-21T02:53:25;20.20;;;13.07;;
23394;SDS011;11870;53.084;18.206;2023-05-21T02:55:51;22.98;;;13.30;;
23394;SDS011;11870;53.084;18.206;2023-05-21T02:58:17;21.50;;;13.85;;
23394;SDS011;11870;53.084;18.206;2023-05-21T03:00:43;24.27;;;13.98;;
23394;SDS011;11870;53.084;18.206;2023-05-21T03:03:08;22.20;;;14.30;;
23394;SDS011;11870;53.084;18.206;2023-05-21T03:05:35;21.15;;;13.52;;
23394;SDS011;11870;53.084;18.206;2023-05-21T03:08:01;22.08;;;13.02;;
23394;SDS011;11870;53.084;18.206;2023-05-21T03:10:28;26.10;;;14.90;;
23394;SDS011;11870;53.084;18.206;2023-05-21T03:12:54;21.80;;;13.40;;
23394;SDS011;11870;53.084;18.206;2023-05-21T03:15:20;22.17;;;13.90;;
23394;SDS011;11870;53.084;18.206;2023-05-21T03:17:48;19.38;;;13.68;;
23394;SDS011;11870;53.084;18.206;2023-05-21T03:20:15;21.50;;;13.80;;
23394;SDS011;11870;53.084;18.206;2023-05-21T03:22:43;26.15;;;14.98;;
23394;SDS011;11870;53.084;18.206;2023-05-21T03:25:10;23.33;;;14.45;;
23394;SDS011;11870;53.084;18.206;2023-05-21T03:27:37;22.70;;;14.80;;
23394;SDS011;11870;53.084;18.206;2023-05-21T03:30:04;24.88;;;14.75;;
23394;SDS011;11870;53.084;18.206;2023-05-21T03:32:30;25.88;;;15.50;;
23394;SDS011;11870;53.084;18.206;2023-05-21T03:34:58;23.80;;;14.50;;
23394;SDS011;11870;53.084;18.206;2023-05-21T03:37:24;24.15;;;16.00;;
23394;SDS011;11870;53.084;18.206;2023-05-21T03:39:50;23.00;;;15.90;;
23394;SDS011;11870;53.084;18.206;2023-05-21T03:42:17;25.85;;;15.80;;
23394;SDS011;11870;53.084;18.206;2023-05-21T03:44:43;27.35;;;16.88;;
23394;SDS011;11870;53.084;18.206;2023-05-21T03:47:08;23.60;;;16.15;;
23394;SDS011;11870;53.084;18.206;2023-05-21T03:49:34;27.73;;;17.13;;
23394;SDS011;11870;53.084;18.206;2023-05-21T03:52:00;30.25;;;18.17;;
23394;SDS011;11870;53.084;18.206;2023-05-21T03:54:26;29.75;;;18.90;;
23394;SDS011;11870;53.084;18.206;2023-05-21T03:56:52;29.30;;;18.25;;
23394;SDS011;11870;53.084;18.206;2023-05-21T03:59:18;29.70;;;19.55;;
23394;SDS011;11870;53.084;18.206;2023-05-21T04:01:44;29.25;;;19.25;;
23394;SDS011;11870;53.084;18.206;2023-05-21T04:04:10;29.35;;;20.10;;
23394;SDS011;11870;53.084;18.206;2023-05-21T04:06:36;30.55;;;21.13;;
23394;SDS011;11870;53.084;18.206;2023-05-21T04:09:02;24.75;;;17.20;;
23394;SDS011;11870;53.084;18.206;2023-05-21T04:11:29;21.13;;;14.38;;
23394;SDS011;11870;53.084;18.206;2023-05-21T04:13:56;20.05;;;12.88;;
23394;SDS011;11870;53.084;18.206;2023-05-21T04:16:21;17.92;;;11.07;;
23394;SDS011;11870;53.084;18.206;2023-05-21T04:18:48;15.07;;;10.70;;
23394;SDS011;11870;53.084;18.206;2023-05-21T04:21:14;14.07;;;10.07;;
23394;SDS011;11870;53.084;18.206;2023-05-21T04:23:41;17.30;;;9.90;;
23394;SDS011;11870;53.084;18.206;2023-05-21T04:26:10;14.98;;;9.43;;
23394;SDS011;11870;53.084;18.206;2023-05-21T04:28:37;15.18;;;8.63;;
23394;SDS011;11870;53.084;18.206;2023-05-21T04:31:06;14.52;;;9.00;;
23394;SDS011;11870;53.084;18.206;2023-05-21T04:33:33;10.65;;;7.72;;
23394;SDS011;11870;53.084;18.206;2023-05-21T04:36:00;10.80;;;8.57;;
23394;SDS011;11870;53.084;18.206;2023-05-21T04:38:31;11.25;;;8.10;;
23394;SDS011;11870;53.084;18.206;2023-05-21T04:40:57;20.40;;;16.80;;
23394;SDS011;11870;53.084;18.206;2023-05-21T04:43:28;13.98;;;10.20;;
23394;SDS011;11870;53.084;18.206;2023-05-21T04:45:54;13.10;;;8.20;;
23394;SDS011;11870;53.084;18.206;2023-05-21T04:48:20;13.40;;;8.05;;
23394;SDS011;11870;53.084;18.206;2023-05-21T04:50:50;10.40;;;7.18;;
23394;SDS011;11870;53.084;18.206;2023-05-21T04:53:18;11.00;;;7.07;;
23394;SDS011;11870;53.084;18.206;2023-05-21T04:55:43;10.60;;;7.68;;
23394;SDS011;11870;53.084;18.206;2023-05-21T04:58:11;9.95;;;7.25;;
23394;SDS011;11870;53.084;18.206;2023-05-21T05:00:37;11.43;;;6.68;;
23394;SDS011;11870;53.084;18.206;2023-05-21T05:03:04;9.05;;;7.15;;
23394;SDS011;11870;53.084;18.206;2023-05-21T05:05:30;9.43;;;6.20;;
23394;SDS011;11870;53.084;18.206;2023-05-21T05:07:56;9.10;;;7.03;;
23394;SDS011;11870;53.084;18.206;2023-05-21T05:10:22;11.13;;;6.65;;
23394;SDS011;11870;53.084;18.206;2023-05-21T05:12:48;14.38;;;7.32;;
23394;SDS011;11870;53.084;18.206;2023-05-21T05:15:14;10.35;;;6.97;;
23394;SDS011;11870;53.084;18.206;2023-05-21T05:17:40;9.35;;;6.88;;
23394;SDS011;11870;53.084;18.206;2023-05-21T05:20:06;10.20;;;6.22;;
23394;SDS011;11870;53.084;18.206;2023-05-21T05:22:33;8.98;;;7.05;;
23394;SDS011;11870;53.084;18.206;2023-05-21T05:24:58;9.43;;;6.63;;
23394;SDS011;11870;53.084;18.206;2023-05-21T05:27:25;8.80;;;6.60;;
23394;SDS011;11870;53.084;18.206;2023-05-21T05:29:50;8.35;;;5.90;;
23394;SDS011;11870;53.084;18.206;2023-05-21T05:32:16;10.93;;;6.68;;
23394;SDS011;11870;53.084;18.206;2023-05-21T05:34:44;9.70;;;5.32;;
23394;SDS011;11870;53.084;18.206;2023-05-21T05:37:10;9.93;;;6.03;;
23394;SDS011;11870;53.084;18.206;2023-05-21T05:39:36;9.13;;;6.40;;
23394;SDS011;11870;53.084;18.206;2023-05-21T05:42:02;9.95;;;6.80;;
23394;SDS011;11870;53.084;18.206;2023-05-21T05:44:28;9.15;;;5.80;;
23394;SDS011;11870;53.084;18.206;2023-05-21T05:46:54;11.20;;;6.72;;
23394;SDS011;11870;53.084;18.206;2023-05-21T05:49:20;9.07;;;6.20;;
23394;SDS011;11870;53.084;18.206;2023-05-21T05:51:46;8.23;;;5.57;;
23394;SDS011;11870;53.084;18.206;2023-05-21T05:54:12;10.13;;;6.35;;
23394;SDS011;11870;53.084;18.206;2023-05-21T05:56:38;8.82;;;6.10;;
23394;SDS011;11870;53.084;18.206;2023-05-21T05:59:03;9.85;;;5.97;;
23394;SDS011;11870;53.084;18.206;2023-05-21T06:01:30;6.50;;;5.47;;
23394;SDS011;11870;53.084;18.206;2023-05-21T06:03:56;6.55;;;5.50;;
23394;SDS011;11870;53.084;18.206;2023-05-21T06:06:22;9.25;;;5.18;;
23394;SDS011;11870;53.084;18.206;2023-05-21T06:08:48;8.18;;;5.70;;
23394;SDS011;11870;53.084;18.206;2023-05-21T06:11:14;7.03;;;5.10;;
23394;SDS011;11870;53.084;18.206;2023-05-21T06:13:41;8.50;;;5.13;;
23394;SDS011;11870;53.084;18.206;2023-05-21T06:16:07;6.93;;;4.82;;
23394;SDS011;11870;53.084;18.206;2023-05-21T06:18:34;7.13;;;4.80;;
23394;SDS011;11870;53.084;18.206;2023-05-21T06:21:00;7.30;;;4.90;;
23394;SDS011;11870;53.084;18.206;2023-05-21T06:23:26;6.13;;;4.60;;
23394;SDS011;11870;53.084;18.206;2023-05-21T06:25:52;7.00;;;4.25;;
23394;SDS011;11870;53.084;18.206;2023-05-21T06:28:17;5.50;;;4.15;;
23394;SDS011;11870;53.084;18.206;2023-05-21T06:30:44;5.07;;;4.13;;
23394;SDS011;11870;53.084;18.206;2023-05-21T06:33:09;4.78;;;3.67;;
23394;SDS011;11870;53.084;18.206;2023-05-21T06:35:35;6.25;;;3.92;;
23394;SDS011;11870;53.084;18.206;2023-05-21T06:38:04;4.15;;;3.75;;
23394;SDS011;11870;53.084;18.206;2023-05-21T06:40:30;4.38;;;3.60;;
23394;SDS011;11870;53.084;18.206;2023-05-21T06:42:56;5.20;;;3.80;;
23394;SDS011;11870;53.084;18.206;2023-05-21T06:45:24;6.47;;;3.58;;
23394;SDS011;11870;53.084;18.206;2023-05-21T06:47:49;5.85;;;3.30;;
23394;SDS011;11870;53.084;18.206;2023-05-21T06:50:16;3.88;;;3.20;;
23394;SDS011;11870;53.084;18.206;2023-05-21T06:52:41;4.38;;;3.60;;
23394;SDS011;11870;53.084;18.206;2023-05-21T06:55:07;4.80;;;3.45;;
23394;SDS011;11870;53.084;18.206;2023-05-21T06:57:36;5.95;;;3.90;;
23394;SDS011;11870;53.084;18.206;2023-05-21T07:00:02;4.32;;;3.85;;
23394;SDS011;11870;53.084;18.206;2023-05-21T07:02:29;4.97;;;3.42;;
23394;SDS011;11870;53.084;18.206;2023-05-21T07:04:55;4.57;;;3.50;;
23394;SDS011;11870;53.084;18.206;2023-05-21T07:07:21;4.28;;;3.17;;
23394;SDS011;11870;53.084;18.206;2023-05-21T07:09:47;4.75;;;3.30;;
23394;SDS011;11870;53.084;18.206;2023-05-21T07:12:13;5.15;;;3.20;;
23394;SDS011;11870;53.084;18.206;2023-05-21T07:14:39;6.68;;;3.35;;
23394;SDS011;11870;53.084;18.206;2023-05-21T07:17:04;4.25;;;3.42;;
23394;SDS011;11870;53.084;18.206;2023-05-21T07:19:30;8.73;;;3.25;;
23394;SDS011;11870;53.084;18.206;2023-05-21T07:21:56;9.38;;;3.28;;
23394;SDS011;11870;53.084;18.206;2023-05-21T07:24:22;8.20;;;3.30;;
23394;SDS011;11870;53.084;18.206;2023-05-21T07:26:48;3.80;;;3.40;;
23394;SDS011;11870;53.084;18.206;2023-05-21T07:29:15;3.63;;;3.30;;
23394;SDS011;11870;53.084;18.206;2023-05-21T07:31:41;3.85;;;3.22;;
23394;SDS011;11870;53.084;18.206;2023-05-21T07:34:07;4.22;;;3.15;;
23394;SDS011;11870;53.084;18.206;2023-05-21T07:36:33;5.70;;;3.08;;
23394;SDS011;11870;53.084;18.206;2023-05-21T07:38:59;3.78;;;2.95;;
23394;SDS011;11870;53.084;18.206;2023-05-21T07:41:25;4.03;;;2.97;;
23394;SDS011;11870;53.084;18.206;2023-05-21T07:43:51;4.10;;;2.95;;
23394;SDS011;11870;53.084;18.206;2023-05-21T07:46:16;6.85;;;2.95;;
23394;SDS011;11870;53.084;18.206;2023-05-21T07:48:42;4.07;;;2.70;;
23394;SDS011;11870;53.084;18.206;2023-05-21T07:51:09;3.33;;;2.75;;
23394;SDS011;11870;53.084;18.206;2023-05-21T07:53:35;6.30;;;2.70;;
23394;SDS011;11870;53.084;18.206;2023-05-21T07:56:01;4.60;;;2.80;;
23394;SDS011;11870;53.084;18.206;2023-05-21T07:58:27;5.85;;;2.70;;
23394;SDS011;11870;53.084;18.206;2023-05-21T08:00:55;3.20;;;2.50;;
23394;SDS011;11870;53.084;18.206;2023-05-21T08:03:21;3.95;;;2.70;;
23394;SDS011;11870;53.084;18.206;2023-05-21T08:05:47;2.97;;;2.55;;
23394;SDS011;11870;53.084;18.206;2023-05-21T08:08:14;7.20;;;2.25;;
23394;SDS011;11870;53.084;18.206;2023-05-21T08:10:40;5.63;;;2.75;;
23394;SDS011;11870;53.084;18.206;2023-05-21T08:13:06;2.38;;;2.13;;
23394;SDS011;11870;53.084;18.206;2023-05-21T08:15:32;5.90;;;2.38;;
23394;SDS011;11870;53.084;18.206;2023-05-21T08:17:59;5.38;;;2.50;;
23394;SDS011;11870;53.084;18.206;2023-05-21T08:20:24;3.42;;;2.15;;
23394;SDS011;11870;53.084;18.206;2023-05-21T08:22:51;3.10;;;2.10;;
23394;SDS011;11870;53.084;18.206;2023-05-21T08:25:17;5.15;;;2.35;;
23394;SDS011;11870;53.084;18.206;2023-05-21T08:27:44;3.92;;;2.30;;
23394;SDS011;11870;53.084;18.206;2023-05-21T08:30:10;3.95;;;2.35;;
23394;SDS011;11870;53.084;18.206;2023-05-21T08:32:36;2.78;;;2.10;;
23394;SDS011;11870;53.084;18.206;2023-05-21T08:35:02;8.05;;;2.30;;
23394;SDS011;11870;53.084;18.206;2023-05-21T08:37:28;3.05;;;2.05;;
23394;SDS011;11870;53.084;18.206;2023-05-21T08:39:54;3.28;;;2.75;;
23394;SDS011;11870;53.084;18.206;2023-05-21T08:42:35;2.45;;;1.98;;
23394;SDS011;11870;53.084;18.206;2023-05-21T08:45:07;2.58;;;2.22;;
23394;SDS011;11870;53.084;18.206;2023-05-21T08:47:35;7.28;;;2.40;;
23394;SDS011;11870;53.084;18.206;2023-05-21T08:50:06;2.85;;;2.30;;
23394;SDS011;11870;53.084;18.206;2023-05-21T08:52:34;2.50;;;2.17;;
23394;SDS011;11870;53.084;18.206;2023-05-21T08:55:02;7.00;;;2.50;;
23394;SDS011;11870;53.084;18.206;2023-05-21T08:57:29;2.80;;;2.50;;
23394;SDS011;11870;53.084;18.206;2023-05-21T08:59:56;3.30;;;2.45;;
23394;SDS011;11870;53.084;18.206;2023-05-21T09:02:22;7.95;;;2.83;;
23394;SDS011;11870;53.084;18.206;2023-05-21T09:04:49;3.30;;;2.30;;
23394;SDS011;11870;53.084;18.206;2023-05-21T09:07:25;4.13;;;2.58;;
23394;SDS011;11870;53.084;18.206;2023-05-21T09:09:56;4.65;;;2.70;;
23394;SDS011;11870;53.084;18.206;2023-05-21T09:12:27;3.65;;;2.40;;
23394;SDS011;11870;53.084;18.206;2023-05-21T09:14:53;7.28;;;2.60;;
23394;SDS011;11870;53.084;18.206;2023-05-21T09:17:22;4.50;;;2.70;;
23394;SDS011;11870;53.084;18.206;2023-05-21T09:22:46;2.83;;;2.38;;
23394;SDS011;11870;53.084;18.206;2023-05-21T09:25:14;2.65;;;2.20;;
23394;SDS011;11870;53.084;18.206;2023-05-21T09:27:41;4.47;;;2.42;;
23394;SDS011;11870;53.084;18.206;2023-05-21T09:30:08;4.28;;;2.50;;
23394;SDS011;11870;53.084;18.206;2023-05-21T09:32:36;2.78;;;2.40;;
23394;SDS011;11870;53.084;18.206;2023-05-21T09:35:07;3.88;;;2.25;;
23394;SDS011;11870;53.084;18.206;2023-05-21T09:37:36;3.80;;;2.40;;
23394;SDS011;11870;53.084;18.206;2023-05-21T09:40:11;3.10;;;2.70;;
23394;SDS011;11870;53.084;18.206;2023-05-21T09:42:44;4.47;;;2.22;;
23394;SDS011;11870;53.084;18.206;2023-05-21T09:45:18;2.85;;;2.30;;
23394;SDS011;11870;53.084;18.206;2023-05-21T09:47:46;5.75;;;2.50;;
23394;SDS011;11870;53.084;18.206;2023-05-21T09:50:14;2.30;;;2.10;;
23394;SDS011;11870;53.084;18.206;2023-05-21T09:52:43;3.00;;;2.28;;
23394;SDS011;11870;53.084;18.206;2023-05-21T09:55:10;2.70;;;2.40;;
23394;SDS011;11870;53.084;18.206;2023-05-21T09:57:44;3.60;;;2.50;;
23394;SDS011;11870;53.084;18.206;2023-05-21T10:00:21;3.60;;;2.58;;
23394;SDS011;11870;53.084;18.206;2023-05-21T10:02:49;4.18;;;2.28;;
23394;SDS011;11870;53.084;18.206;2023-05-21T10:05:28;9.20;;;2.28;;
23394;SDS011;11870;53.084;18.206;2023-05-21T10:07:58;6.72;;;2.65;;
23394;SDS011;11870;53.084;18.206;2023-05-21T10:10:26;3.78;;;2.15;;
23394;SDS011;11870;53.084;18.206;2023-05-21T10:12:55;3.45;;;2.20;;
23394;SDS011;11870;53.084;18.206;2023-05-21T10:15:31;3.35;;;2.47;;
23394;SDS011;11870;53.084;18.206;2023-05-21T10:18:00;4.90;;;2.10;;
23394;SDS011;11870;53.084;18.206;2023-05-21T10:20:27;4.93;;;2.17;;
23394;SDS011;11870;53.084;18.206;2023-05-21T10:22:53;3.58;;;2.20;;
23394;SDS011;11870;53.084;18.206;2023-05-21T10:25:20;3.45;;;2.50;;
23394;SDS011;11870;53.084;18.206;2023-05-21T10:27:47;4.00;;;2.20;;
23394;SDS011;11870;53.084;18.206;2023-05-21T10:30:14;6.15;;;2.38;;
23394;SDS011;11870;53.084;18.206;2023-05-21T10:32:42;6.78;;;2.58;;
23394;SDS011;11870;53.084;18.206;2023-05-21T10:35:08;3.67;;;2.08;;
23394;SDS011;11870;53.084;18.206;2023-05-21T10:37:36;3.60;;;2.05;;
23394;SDS011;11870;53.084;18.206;2023-05-21T10:40:04;4.40;;;2.30;;
23394;SDS011;11870;53.084;18.206;2023-05-21T10:56:31;3.22;;;2.35;;
23394;SDS011;11870;53.084;18.206;2023-05-21T11:01:47;2.92;;;2.22;;
23394;SDS011;11870;53.084;18.206;2023-05-21T11:04:20;8.00;;;2.30;;
23394;SDS011;11870;53.084;18.206;2023-05-21T11:06:48;3.53;;;2.10;;
23394;SDS011;11870;53.084;18.206;2023-05-21T11:09:14;3.42;;;2.30;;
23394;SDS011;11870;53.084;18.206;2023-05-21T11:11:44;4.38;;;2.50;;
23394;SDS011;11870;53.084;18.206;2023-05-21T11:14:31;4.80;;;2.28;;
23394;SDS011;11870;53.084;18.206;2023-05-21T11:17:14;2.80;;;2.25;;
23394;SDS011;11870;53.084;18.206;2023-05-21T11:19:44;2.97;;;2.22;;
23394;SDS011;11870;53.084;18.206;2023-05-21T11:22:19;2.63;;;2.20;;
23394;SDS011;11870;53.084;18.206;2023-05-21T11:24:47;4.28;;;2.33;;
23394;SDS011;11870;53.084;18.206;2023-05-21T11:27:29;6.38;;;2.17;;
23394;SDS011;11870;53.084;18.206;2023-05-21T11:29:59;3.63;;;1.90;;
23394;SDS011;11870;53.084;18.206;2023-05-21T11:32:27;3.25;;;2.00;;
23394;SDS011;11870;53.084;18.206;2023-05-21T11:34:54;3.30;;;2.28;;
23394;SDS011;11870;53.084;18.206;2023-05-21T11:37:26;2.42;;;2.05;;
23394;SDS011;11870;53.084;18.206;2023-05-21T11:39:54;2.50;;;2.03;;
23394;SDS011;11870;53.084;18.206;2023-05-21T11:42:32;5.88;;;2.58;;
23394;SDS011;11870;53.084;18.206;2023-05-21T11:44:59;3.38;;;2.05;;
23394;SDS011;11870;53.084;18.206;2023-05-21T11:47:27;3.08;;;2.08;;
23394;SDS011;11870;53.084;18.206;2023-05-21T11:49:54;4.85;;;2.20;;
23394;SDS011;11870;53.084;18.206;2023-05-21T11:52:21;6.82;;;2.38;;
23394;SDS011;11870;53.084;18.206;2023-05-21T11:54:49;7.78;;;2.10;;
23394;SDS011;11870;53.084;18.206;2023-05-21T11:57:18;4.03;;;2.15;;
23394;SDS011;11870;53.084;18.206;2023-05-21T11:59:44;4.03;;;2.10;;
23394;SDS011;11870;53.084;18.206;2023-05-21T12:02:15;4.25;;;2.20;;
23394;SDS011;11870;53.084;18.206;2023-05-21T12:04:45;4.78;;;2.15;;
23394;SDS011;11870;53.084;18.206;2023-05-21T12:07:13;4.68;;;2.38;;
23394;SDS011;11870;53.084;18.206;2023-05-21T12:12:10;5.68;;;2.55;;
23394;SDS011;11870;53.084;18.206;2023-05-21T12:14:42;6.18;;;2.28;;
23394;SDS011;11870;53.084;18.206;2023-05-21T12:17:09;5.45;;;2.33;;
23394;SDS011;11870;53.084;18.206;2023-05-21T12:19:37;3.35;;;2.42;;
23394;SDS011;11870;53.084;18.206;2023-05-21T12:22:04;2.85;;;2.30;;
23394;SDS011;11870;53.084;18.206;2023-05-21T12:24:31;3.42;;;2.30;;
23394;SDS011;11870;53.084;18.206;2023-05-21T12:26:58;3.80;;;2.00;;
23394;SDS011;11870;53.084;18.206;2023-05-21T12:29:29;4.72;;;2.60;;
23394;SDS011;11870;53.084;18.206;2023-05-21T12:32:00;5.63;;;2.88;;
23394;SDS011;11870;53.084;18.206;2023-05-21T12:34:46;2.97;;;2.00;;
23394;SDS011;11870;53.084;18.206;2023-05-21T12:37:21;5.68;;;1.90;;
23394;SDS011;11870;53.084;18.206;2023-05-21T12:39:49;2.60;;;2.17;;
23394;SDS011;11870;53.084;18.206;2023-05-21T12:42:23;3.15;;;2.25;;
23394;SDS011;11870;53.084;18.206;2023-05-21T12:44:54;3.97;;;2.60;;
23394;SDS011;11870;53.084;18.206;2023-05-21T12:47:24;4.55;;;1.80;;
23394;SDS011;11870;53.084;18.206;2023-05-21T12:49:58;4.82;;;2.22;;
23394;SDS011;11870;53.084;18.206;2023-05-21T12:52:26;3.88;;;2.13;;
23394;SDS011;11870;53.084;18.206;2023-05-21T12:54:53;3.38;;;2.28;;
23394;SDS011;11870;53.084;18.206;2023-05-21T12:57:24;3.78;;;1.98;;
23394;SDS011;11870;53.084;18.206;2023-05-21T12:59:56;3.17;;;1.92;;
23394;SDS011;11870;53.084;18.206;2023-05-21T13:02:24;4.43;;;2.67;;
23394;SDS011;11870;53.084;18.206;2023-05-21T13:04:57;5.38;;;1.90;;
23394;SDS011;11870;53.084;18.206;2023-05-21T13:07:29;2.75;;;1.75;;
23394;SDS011;11870;53.084;18.206;2023-05-21T13:09:56;3.17;;;1.88;;
23394;SDS011;11870;53.084;18.206;2023-05-21T13:12:23;2.42;;;1.90;;
23394;SDS011;11870;53.084;18.206;2023-05-21T13:14:51;3.83;;;2.00;;
23394;SDS011;11870;53.084;18.206;2023-05-21T13:17:18;2.75;;;1.65;;
23394;SDS011;11870;53.084;18.206;2023-05-21T13:22:35;6.22;;;2.30;;
23394;SDS011;11870;53.084;18.206;2023-05-21T13:25:03;7.38;;;4.47;;
23394;SDS011;11870;53.084;18.206;2023-05-21T13:27:30;4.95;;;3.05;;
23394;SDS011;11870;53.084;18.206;2023-05-21T13:29:56;3.97;;;1.77;;
23394;SDS011;11870;53.084;18.206;2023-05-21T13:32:22;4.82;;;2.10;;
23394;SDS011;11870;53.084;18.206;2023-05-21T13:34:48;4.03;;;2.28;;
23394;SDS011;11870;53.084;18.206;2023-05-21T13:37:14;3.08;;;2.10;;
23394;SDS011;11870;53.084;18.206;2023-05-21T13:39:40;4.80;;;2.17;;
23394;SDS011;11870;53.084;18.206;2023-05-21T13:42:06;3.38;;;1.85;;
23394;SDS011;11870;53.084;18.206;2023-05-21T13:44:32;2.83;;;1.95;;
23394;SDS011;11870;53.084;18.206;2023-05-21T13:47:01;2.65;;;2.00;;
23394;SDS011;11870;53.084;18.206;2023-05-21T13:49:27;3.40;;;1.90;;
23394;SDS011;11870;53.084;18.206;2023-05-21T13:51:53;4.35;;;1.85;;
23394;SDS011;11870;53.084;18.206;2023-05-21T13:54:19;4.43;;;1.83;;
23394;SDS011;11870;53.084;18.206;2023-05-21T13:56:46;6.60;;;2.22;;
23394;SDS011;11870;53.084;18.206;2023-05-21T13:59:11;3.55;;;2.10;;
23394;SDS011;11870;53.084;18.206;2023-05-21T14:01:38;5.88;;;2.45;;
23394;SDS011;11870;53.084;18.206;2023-05-21T14:04:03;3.60;;;2.15;;
23394;SDS011;11870;53.084;18.206;2023-05-21T14:06:30;2.80;;;2.00;;
23394;SDS011;11870;53.084;18.206;2023-05-21T14:08:57;5.30;;;2.25;;
23394;SDS011;11870;53.084;18.206;2023-05-21T14:11:23;4.95;;;2.28;;
23394;SDS011;11870;53.084;18.206;2023-05-21T14:13:50;4.55;;;2.13;;
23394;SDS011;11870;53.084;18.206;2023-05-21T14:16:17;3.15;;;1.80;;
23394;SDS011;11870;53.084;18.206;2023-05-21T14:18:47;4.40;;;2.20;;
23394;SDS011;11870;53.084;18.206;2023-05-21T14:21:13;2.15;;;1.90;;
23394;SDS011;11870;53.084;18.206;2023-05-21T14:23:39;4.20;;;2.38;;
23394;SDS011;11870;53.084;18.206;2023-05-21T14:26:05;5.68;;;2.45;;
23394;SDS011;11870;53.084;18.206;2023-05-21T14:28:31;6.78;;;2.30;;
23394;SDS011;11870;53.084;18.206;2023-05-21T14:30:57;6.78;;;2.08;;
23394;SDS011;11870;53.084;18.206;2023-05-21T14:33:22;3.42;;;1.90;;
23394;SDS011;11870;53.084;18.206;2023-05-21T14:35:48;8.25;;;2.00;;
23394;SDS011;11870;53.084;18.206;2023-05-21T14:38:14;2.22;;;1.70;;
23394;SDS011;11870;53.084;18.206;2023-05-21T14:40:40;5.22;;;2.28;;
23394;SDS011;11870;53.084;18.206;2023-05-21T14:43:06;3.63;;;1.92;;
23394;SDS011;11870;53.084;18.206;2023-05-21T14:45:33;8.55;;;2.20;;
23394;SDS011;11870;53.084;18.206;2023-05-21T14:48:02;3.70;;;2.00;;
23394;SDS011;11870;53.084;18.206;2023-05-21T14:50:36;3.55;;;2.22;;
23394;SDS011;11870;53.084;18.206;2023-05-21T14:53:06;3.80;;;2.20;;
23394;SDS011;11870;53.084;18.206;2023-05-21T14:55:33;3.35;;;2.10;;
23394;SDS011;11870;53.084;18.206;2023-05-21T14:58:01;2.85;;;2.00;;
23394;SDS011;11870;53.084;18.206;2023-05-21T15:00:28;3.88;;;2.08;;